Seattle, WA

3:51 PM PDT on October 25, 2014 (GMT -0700)
Snohomish County | Change Station
CLOSE
Current Station
Airport
Location: Everett,
Elevation: 604 ft
Nearby Weather Stations
Active Advisory: High Wind Warning

Elev 604 ft 47.91 °N, 122.28 °W | Updated 58 minutes ago

Rain
Rain
57 °F
Feels Like 57 °F
N
6
Wind Variable Wind from ESE

Today
High -- | Low -- °F
--% Chance of Precip.
Yesterday
High -- | Low -- °F
Precip. -- in
7:43 AM 6:02 PM
Waxing Crescent, 4% visible
Pressure 29.32 in
Visibility 6.0 miles
Clouds Overcast 6500 ft
Dew Point 52 °F
Humidity 83%
Rainfall 0.10 in
Snow Depth Not available.
UV 1 out of 12
Pollen .40 out of 12
Air Quality Not available.
Flu Activity Not available.
METAR KPAE 252153Z 11005KT 6SM -RA OVC065 14/11 A2932 RMK AO2 SLP929 P0005 T01390111

More Conditions Fewer Conditions

Pressure 29.32 in
Visibility 6.0 miles
Clouds Overcast 6500 ft
Dew Point 52 °F
Humidity 83%
Rainfall 0.10 in
Snow Depth Not available.
UV 1 out of 12
Pollen .40 out of 12
Air Quality Not available.
Flu Activity Not available.
METAR KPAE 252153Z 11005KT 6SM -RA OVC065 14/11 A2932 RMK AO2 SLP929 P0005 T01390111

More Conditions Fewer Conditions

10-Day Weather Forecast

Almanac

Astronomy

Oct. 25, 2014 Rise Set
Actual Time 7:43 AM PDT 6:02 PM PDT
Civil Twilight 7:11 AM PDT 6:34 PM PDT
Nautical Twilight 6:35 AM PDT 7:10 PM PDT
Astronomical Twilight 5:59 AM PDT 7:46 PM PDT
Moon 9:32 AM PDT 7:23 PM PDT
Length of Visible Light 11h 23m
Length of Day
10h 19m
Tomorrow will be 3m 12s shorter.
Waxing Crescent, 4% of the Moon is Illuminated
Today
Waxing Crescent
Oct 30
First Quarter
Nov 6
Full
Nov 14
Last Quarter
Nov 22
New

Today's Extremes

State Highs State Lows

Community

WunderPhotos

Upload Photos

1,765,016 photos uploaded!

Nearby

Snow Depth

Station Depth Elevation
Alpine Meadows 0 in 3500 ft
Skookum Creek 0 in 3920 ft
Dungeness 0 in 4100 ft
Mount Gardner 0 in 3000 ft
Meadows Pass 0 in 3500 ft

Earthquake Activity

City Distance Mag. Time & Date
Birch Bay, Washington 86 miles 2.8 3:02 AM PDT
2014-10-24
Minimum magnitude displayed is 2.5.

Coastal Water Temperatures

Place Temperature
Port Townsend, WA 52.0 °F
Seattle, WA 55.0 °F
Friday Harbor, WA 51.1 °F
Tacoma, WA 54.0 °F

Nearby Weather Stations